Time;durP1;ratioP1;P1;durP2;ratioP2;P2;SDS_P1;SDS_P2;PMS_P1;PMS_P2;Temp;Humidity;BMP_temperature;BMP_pressure;BME280_temperature;BME280_humidity;BME280_pressure;Samples;Min_cycle;Max_cycle;Signal;HPM_P1;HPM_P2
2023/04/25 00:00:07;;;;;;;11.50;3.97;;;;;;;-144.85;100.00;61331.59;5077340;28;32595;-65
2023/04/25 00:02:38;;;;;;;10.60;3.85;;;;;;;-144.85;100.00;61331.59;5077452;28;32916;-66
2023/04/25 00:05:05;;;;;;;10.05;3.53;;;;;;;-144.85;100.00;61331.59;5071791;28;32436;-66
2023/04/25 00:07:34;;;;;;;8.50;3.38;;;;;;;-144.85;100.00;61331.59;5074898;28;32215;-66
2023/04/25 00:10:02;;;;;;;15.23;4.07;;;;;;;-144.85;100.00;61331.59;5077266;28;31641;-66
2023/04/25 00:12:30;;;;;;;10.00;3.63;;;;;;;-144.85;100.00;61331.59;5076584;28;31291;-66
2023/04/25 00:14:57;;;;;;;10.32;3.75;;;;;;;-144.85;100.00;61331.59;5080522;28;31799;-66
2023/04/25 00:17:25;;;;;;;9.80;3.40;;;;;;;-144.85;100.00;61331.59;5075394;28;33912;-66
2023/04/25 00:19:52;;;;;;;12.73;3.67;;;;;;;-144.85;100.00;61331.59;5078995;28;32011;-66
2023/04/25 00:22:20;;;;;;;6.72;3.25;;;;;;;-144.85;100.00;61331.59;5073355;28;32457;-66
2023/04/25 00:24:47;;;;;;;12.30;3.70;;;;;;;-144.85;100.00;61331.59;5077714;28;31943;-66
2023/04/25 00:27:15;;;;;;;12.25;3.70;;;;;;;-144.85;100.00;61331.59;5078530;28;32198;-65
2023/04/25 00:29:42;;;;;;;11.07;3.50;;;;;;;-144.85;100.00;61331.59;5070806;28;31931;-66
2023/04/25 00:32:09;;;;;;;9.55;3.80;;;;;;;-144.85;100.00;61331.59;5078565;28;30544;-66
2023/04/25 00:34:37;;;;;;;12.07;3.47;;;;;;;-144.85;100.00;61331.59;5074816;28;31445;-65
2023/04/25 00:37:04;;;;;;;12.23;3.28;;;;;;;-144.85;100.00;61331.59;5059744;28;30909;-66
2023/04/25 00:39:31;;;;;;;11.93;3.53;;;;;;;-144.85;100.00;61331.59;5070480;28;32651;-65
2023/04/25 00:42:00;;;;;;;12.25;3.65;;;;;;;-144.85;100.00;61331.59;5075520;28;32326;-65
2023/04/25 00:44:29;;;;;;;11.63;3.25;;;;;;;-144.85;100.00;61331.59;5069396;28;32423;-65
2023/04/25 00:46:57;;;;;;;9.63;3.50;;;;;;;-144.85;100.00;61331.59;5073448;28;33209;-65
2023/04/25 00:49:24;;;;;;;7.53;3.58;;;;;;;-144.85;100.00;61331.59;5079031;28;32089;-65
2023/04/25 00:51:52;;;;;;;10.60;3.47;;;;;;;-144.85;100.00;61331.59;5070045;28;30434;-65
2023/04/25 00:54:20;;;;;;;8.88;3.42;;;;;;;-144.85;100.00;61331.59;5073542;28;31837;-65
2023/04/25 00:56:47;;;;;;;16.70;3.85;;;;;;;-144.85;100.00;61331.59;5070525;28;32186;-65
2023/04/25 00:59:15;;;;;;;11.15;3.28;;;;;;;-144.85;100.00;61331.59;5073324;28;31843;-65
2023/04/25 01:01:43;;;;;;;10.43;3.35;;;;;;;-144.85;100.00;61331.59;5069631;28;30414;-65
2023/04/25 01:04:12;;;;;;;10.52;3.67;;;;;;;-144.85;100.00;61331.59;5074111;28;32508;-65
2023/04/25 01:06:40;;;;;;;12.68;3.42;;;;;;;-144.85;100.00;61331.59;5068977;28;30741;-65
2023/04/25 01:09:09;;;;;;;9.68;3.17;;;;;;;-144.85;100.00;61331.59;5076891;28;31639;-65
2023/04/25 01:11:36;;;;;;;11.38;3.40;;;;;;;-144.85;100.00;61331.59;5071229;28;33165;-65
2023/04/25 01:14:03;;;;;;;10.00;3.55;;;;;;;-144.85;100.00;61331.59;5074862;28;32418;-66
2023/04/25 01:16:31;;;;;;;12.98;3.28;;;;;;;-144.85;100.00;61331.59;5071365;28;31048;-66
2023/04/25 01:18:59;;;;;;;12.93;3.50;;;;;;;-144.85;100.00;61331.59;5074711;28;31970;-66
2023/04/25 01:21:27;;;;;;;11.93;3.22;;;;;;;-144.85;100.00;61331.59;5075087;28;30303;-66
2023/04/25 01:23:55;;;;;;;10.15;3.28;;;;;;;-144.85;100.00;61331.59;5073523;28;33513;-66
2023/04/25 01:26:23;;;;;;;11.40;4.07;;;;;;;-144.85;100.00;61331.59;5068523;28;30794;-66
2023/04/25 01:28:51;;;;;;;10.88;3.67;;;;;;;-144.85;100.00;61331.59;5094919;28;30809;-65
2023/04/25 01:31:19;;;;;;;9.48;3.15;;;;;;;-144.85;100.00;61331.59;5068963;28;30501;-66
2023/04/25 01:33:47;;;;;;;11.93;3.80;;;;;;;-144.85;100.00;61331.59;5084904;28;31267;-65
2023/04/25 01:36:15;;;;;;;11.20;3.50;;;;;;;-144.85;100.00;61331.59;5074265;28;32197;-65
2023/04/25 01:38:43;;;;;;;13.93;3.75;;;;;;;-144.85;100.00;61331.59;5069727;28;30663;-66
2023/04/25 01:41:11;;;;;;;14.15;3.60;;;;;;;-144.85;100.00;61331.59;5072238;28;31351;-65
2023/04/25 01:43:38;;;;;;;14.65;3.40;;;;;;;-144.85;100.00;61331.59;5061053;28;31394;-65
2023/04/25 01:46:06;;;;;;;11.40;3.65;;;;;;;-144.85;100.00;61331.59;5076007;28;32083;-65
2023/04/25 01:48:33;;;;;;;10.85;3.70;;;;;;;-144.85;100.00;61331.59;5075992;28;32034;-66
2023/04/25 01:51:01;;;;;;;9.73;3.45;;;;;;;-144.85;100.00;61331.59;5075698;28;31382;-66
2023/04/25 01:53:29;;;;;;;11.10;3.65;;;;;;;-144.85;100.00;61331.59;5075560;28;32722;-66
2023/04/25 01:55:57;;;;;;;14.65;3.92;;;;;;;-144.85;100.00;61331.59;5073564;28;31006;-66
2023/04/25 01:58:27;;;;;;;12.60;3.67;;;;;;;-144.85;100.00;61331.59;5056142;28;30679;-66
2023/04/25 02:01:20;;;;;;;10.18;3.40;;;;;;;-144.85;100.00;61331.59;5059876;28;32153;-66
2023/04/25 02:04:07;;;;;;;10.95;3.35;;;;;;;-144.85;100.00;61331.59;5075549;28;32752;-66
2023/04/25 02:06:37;;;;;;;12.90;3.38;;;;;;;-144.85;100.00;61331.59;5072306;28;32040;-66
2023/04/25 02:09:06;;;;;;;17.20;3.92;;;;;;;-144.85;100.00;61331.59;5072392;28;31601;-66
2023/04/25 02:11:33;;;;;;;18.08;4.00;;;;;;;-144.85;100.00;61331.59;5073714;28;30506;-66
2023/04/25 02:14:36;;;;;;;14.55;3.78;;;;;;;-144.85;100.00;61331.59;5055876;28;33286;-66
2023/04/25 02:17:09;;;;;;;12.02;3.70;;;;;;;-144.85;100.00;61331.59;5070171;28;32190;-65
2023/04/25 02:19:37;;;;;;;16.88;3.65;;;;;;;-144.85;100.00;61331.59;5068482;28;29952;-65
2023/04/25 02:22:04;;;;;;;18.70;4.00;;;;;;;-144.85;100.00;61331.59;5076567;28;31447;-65
2023/04/25 02:24:33;;;;;;;14.35;4.03;;;;;;;-144.85;100.00;61331.59;5091106;28;31620;-65
2023/04/25 02:27:00;;;;;;;12.80;3.72;;;;;;;-144.85;100.00;61331.59;5074672;28;31159;-65
2023/04/25 02:29:29;;;;;;;11.55;4.10;;;;;;;-144.85;100.00;61331.59;5070786;28;32621;-65
2023/04/25 02:31:56;;;;;;;15.82;3.53;;;;;;;-144.85;100.00;61331.59;5073687;28;30533;-65
2023/04/25 02:34:25;;;;;;;16.73;3.90;;;;;;;-144.85;100.00;61331.59;5068481;28;31557;-65
2023/04/25 02:36:54;;;;;;;14.07;3.90;;;;;;;-144.85;100.00;61331.59;5067774;28;32037;-65
2023/04/25 02:39:22;;;;;;;14.93;3.58;;;;;;;-144.85;100.00;61331.59;5071070;28;31736;-65
2023/04/25 02:41:49;;;;;;;17.55;4.60;;;;;;;-144.85;100.00;61331.59;5075296;28;31706;-65
2023/04/25 02:44:16;;;;;;;11.18;3.88;;;;;;;-144.85;100.00;61331.59;5073582;28;34269;-66
2023/04/25 02:46:45;;;;;;;12.48;4.00;;;;;;;-144.85;100.00;61331.59;5073363;28;33286;-65
2023/04/25 02:49:12;;;;;;;18.48;4.53;;;;;;;-144.85;100.00;61331.59;5072005;28;30628;-66
2023/04/25 02:51:39;;;;;;;13.60;4.05;;;;;;;-144.85;100.00;61331.59;5070760;28;31487;-68
2023/04/25 02:54:06;;;;;;;15.80;4.35;;;;;;;-144.85;100.00;61331.59;5064816;28;32422;-65
2023/04/25 02:56:38;;;;;;;17.70;4.63;;;;;;;-144.85;100.00;61331.59;5094950;22;31885;-79
2023/04/25 02:59:10;;;;;;;12.93;4.40;;;;;;;-144.85;100.00;61331.59;5077112;28;32089;-79
2023/04/25 03:01:38;;;;;;;13.98;4.03;;;;;;;-144.85;100.00;61331.59;5075852;28;33873;-79
2023/04/25 03:04:05;;;;;;;11.15;4.03;;;;;;;-144.85;100.00;61331.59;5079828;28;32501;-79
2023/04/25 03:06:32;;;;;;;12.63;4.03;;;;;;;-144.85;100.00;61331.59;5081634;28;32468;-79
2023/04/25 03:09:00;;;;;;;16.80;4.65;;;;;;;-144.85;100.00;61331.59;5082589;28;31283;-79
2023/04/25 03:11:27;;;;;;;12.45;4.10;;;;;;;-144.85;100.00;61331.59;5085268;28;31604;-79
2023/04/25 03:13:54;;;;;;;11.02;4.05;;;;;;;-144.85;100.00;61331.59;5077239;28;31933;-79
2023/04/25 03:16:22;;;;;;;14.07;4.05;;;;;;;-144.85;100.00;61331.59;5060342;28;30828;-78
2023/04/25 03:18:50;;;;;;;13.98;4.32;;;;;;;-144.85;100.00;61331.59;5060855;28;30548;-79
2023/04/25 03:21:17;;;;;;;13.80;3.80;;;;;;;-144.85;100.00;61331.59;5081698;28;30516;-79
2023/04/25 03:23:45;;;;;;;12.63;4.47;;;;;;;-144.85;100.00;61331.59;5086228;28;33412;-79
2023/04/25 03:26:12;;;;;;;14.77;4.32;;;;;;;-144.85;100.00;61331.59;5075789;28;31322;-79
2023/04/25 03:28:40;;;;;;;12.82;4.20;;;;;;;-144.85;100.00;61331.59;5078071;28;32453;-79
2023/04/25 03:31:07;;;;;;;13.15;3.97;;;;;;;-144.85;100.00;61331.59;5076362;28;31246;-79
2023/04/25 03:33:34;;;;;;;17.50;4.63;;;;;;;-144.85;100.00;61331.59;5079805;28;32906;-79
2023/04/25 03:36:02;;;;;;;13.77;4.35;;;;;;;-144.85;100.00;61331.59;5072788;28;32689;-79
2023/04/25 03:38:29;;;;;;;11.73;4.43;;;;;;;-144.85;100.00;61331.59;5079000;28;32945;-79
2023/04/25 03:40:57;;;;;;;18.10;4.22;;;;;;;-144.85;100.00;61331.59;5075883;28;32325;-79
2023/04/25 03:43:41;;;;;;;18.95;4.90;;;;;;;-144.85;100.00;61331.59;5078584;28;32669;-79
2023/04/25 03:46:11;;;;;;;17.75;4.38;;;;;;;-144.85;100.00;61331.59;5070371;28;33928;-79
2023/04/25 03:48:40;;;;;;;14.38;4.72;;;;;;;-144.85;100.00;61331.59;5075424;28;31116;-79
2023/04/25 03:51:09;;;;;;;12.43;3.92;;;;;;;-144.85;100.00;61331.59;5077884;28;30433;-79
2023/04/25 03:53:39;;;;;;;15.85;4.47;;;;;;;-144.85;100.00;61331.59;5073832;28;33636;-79
2023/04/25 03:56:20;;;;;;;13.38;4.15;;;;;;;-144.85;100.00;61331.59;5078927;28;33273;-79
2023/04/25 03:58:53;;;;;;;16.20;4.50;;;;;;;-144.85;100.00;61331.59;5071166;28;32303;-79
2023/04/25 04:01:22;;;;;;;13.13;3.92;;;;;;;-144.85;100.00;61331.59;5059567;28;30371;-79
2023/04/25 04:03:50;;;;;;;15.77;4.35;;;;;;;-144.85;100.00;61331.59;5074680;28;32931;-79
2023/04/25 04:06:20;;;;;;;11.85;4.75;;;;;;;-144.85;100.00;61331.59;5076270;28;31267;-79
2023/04/25 04:08:51;;;;;;;17.35;4.28;;;;;;;-144.85;100.00;61331.59;5070645;28;31898;-79
2023/04/25 04:11:20;;;;;;;12.77;4.07;;;;;;;-144.85;100.00;61331.59;5072930;28;30505;-79
2023/04/25 04:13:47;;;;;;;15.88;4.32;;;;;;;-144.85;100.00;61331.59;5075406;28;31664;-79
2023/04/25 04:16:15;;;;;;;16.50;4.32;;;;;;;-144.85;100.00;61331.59;5068267;28;30999;-79
2023/04/25 04:18:43;;;;;;;15.88;4.20;;;;;;;-144.85;100.00;61331.59;5054268;28;31103;-79
2023/04/25 04:21:11;;;;;;;16.25;3.88;;;;;;;-144.85;100.00;61331.59;5073232;28;30698;-79
2023/04/25 04:23:40;;;;;;;15.85;4.40;;;;;;;-144.85;100.00;61331.59;5071919;28;31590;-79
2023/04/25 04:26:09;;;;;;;14.30;3.90;;;;;;;-144.85;100.00;61331.59;5076554;28;32231;-79
2023/04/25 04:28:55;;;;;;;11.93;3.85;;;;;;;-144.85;100.00;61331.59;5075226;28;33138;-79
2023/04/25 04:31:50;;;;;;;13.10;3.65;;;;;;;-144.85;100.00;61331.59;5073278;28;31850;-78
2023/04/25 04:34:18;;;;;;;16.83;4.43;;;;;;;-144.85;100.00;61331.59;5074030;28;31536;-79
2023/04/25 04:36:46;;;;;;;12.98;4.03;;;;;;;-144.85;100.00;61331.59;5072412;28;30755;-79
2023/04/25 04:39:13;;;;;;;15.82;4.18;;;;;;;-144.85;100.00;61331.59;5074331;28;30718;-79
2023/04/25 04:41:55;;;;;;;12.90;4.05;;;;;;;-144.85;100.00;61331.59;5077678;28;32907;-79
2023/04/25 04:44:52;;;;;;;;;;;;;;;-144.85;100.00;61331.59;5081532;28;33493;-79
2023/04/25 04:47:36;;;;;;;14.10;4.20;;;;;;;-144.85;100.00;61331.59;5076495;28;32992;-79
2023/04/25 04:50:28;;;;;;;12.25;4.20;;;;;;;-144.85;100.00;61331.59;5074011;28;30976;-80
2023/04/25 04:53:21;;;;;;;23.17;5.10;;;;;;;-144.85;100.00;61331.59;5057636;28;30899;-79
2023/04/25 04:56:09;;;;;;;15.35;4.22;;;;;;;-144.85;100.00;61331.59;5067853;28;32671;-80
2023/04/25 04:59:08;;;;;;;15.38;4.22;;;;;;;-144.85;100.00;61331.59;5058658;28;33156;-79
2023/04/25 05:01:43;;;;;;;17.45;3.90;;;;;;;-144.85;100.00;61331.59;5076611;28;31068;-79
2023/04/25 05:04:16;;;;;;;15.48;4.40;;;;;;;-144.85;100.00;61331.59;5077632;28;32983;-79
2023/04/25 05:07:07;;;;;;;10.55;3.60;;;;;;;-144.85;100.00;61331.59;5072644;28;33659;-79
2023/04/25 05:10:10;;;;;;;12.05;3.75;;;;;;;-144.85;100.00;61331.59;5070822;28;32703;-79
2023/04/25 05:12:56;;;;;;;12.23;3.78;;;;;;;-144.85;100.00;61331.59;5076698;28;33623;-79
2023/04/25 05:15:45;;;;;;;11.82;3.90;;;;;;;-144.85;100.00;61331.59;5074891;28;30739;-79
2023/04/25 05:18:26;;;;;;;12.80;3.78;;;;;;;-144.85;100.00;61331.59;5061492;28;31775;-79
2023/04/25 05:21:22;;;;;;;10.10;3.92;;;;;;;-144.85;100.00;61331.59;5075890;28;31420;-79
2023/04/25 05:24:09;;;;;;;7.85;3.28;;;;;;;-144.85;100.00;61331.59;5073126;28;31686;-79
2023/04/25 05:26:57;;;;;;;10.23;3.40;;;;;;;-144.85;100.00;61331.59;5077337;28;31034;-79
2023/04/25 05:29:50;;;;;;;11.75;3.55;;;;;;;-144.85;100.00;61331.59;5075704;28;31711;-79
2023/04/25 05:32:25;;;;;;;18.63;4.05;;;;;;;-144.85;100.00;61331.59;5081239;28;31687;-79
2023/04/25 05:34:53;;;;;;;14.20;4.10;;;;;;;-144.85;100.00;61331.59;5079313;28;31520;-79
2023/04/25 05:37:31;;;;;;;13.68;4.05;;;;;;;-144.85;100.00;61331.59;5073834;28;32647;-79
2023/04/25 05:40:06;;;;;;;13.73;3.80;;;;;;;-144.85;100.00;61331.59;5079733;28;32882;-80
2023/04/25 05:42:52;;;;;;;9.00;3.80;;;;;;;-144.85;100.00;61331.59;5079085;28;33792;-79
2023/04/25 05:45:19;;;;;;;11.88;4.30;;;;;;;-144.85;100.00;61331.59;5081052;28;32299;-79
2023/04/25 05:47:57;;;;;;;17.02;3.60;;;;;;;-144.85;100.00;61331.59;5069797;28;30771;-79
2023/04/25 05:50:41;;;;;;;15.43;4.22;;;;;;;-144.85;100.00;61331.59;5069710;28;33482;-79
2023/04/25 05:53:27;;;;;;;10.93;3.92;;;;;;;-144.85;100.00;61331.59;5069397;28;33584;-79
2023/04/25 05:56:01;;;;;;;11.40;4.05;;;;;;;-144.85;100.00;61331.59;5068732;28;31723;-79
2023/04/25 05:58:28;;;;;;;11.20;3.70;;;;;;;-144.85;100.00;61331.59;5073520;28;30676;-79
2023/04/25 06:00:57;;;;;;;13.68;4.03;;;;;;;-144.85;100.00;61331.59;5069554;28;31852;-79
2023/04/25 06:03:24;;;;;;;9.82;3.58;;;;;;;-144.85;100.00;61331.59;5066916;28;32643;-79
2023/04/25 06:05:51;;;;;;;16.55;3.85;;;;;;;-144.85;100.00;61331.59;5069727;28;32261;-79
2023/04/25 06:08:20;;;;;;;11.57;3.85;;;;;;;-144.85;100.00;61331.59;5065299;28;30565;-79
2023/04/25 06:10:47;;;;;;;11.55;3.35;;;;;;;-144.85;100.00;61331.59;5068799;28;33175;-79
2023/04/25 06:13:15;;;;;;;12.82;4.00;;;;;;;-144.85;100.00;61331.59;5080452;28;32513;-79
2023/04/25 06:15:42;;;;;;;16.17;3.38;;;;;;;-144.85;100.00;61331.59;5078979;28;31853;-79
2023/04/25 06:18:11;;;;;;;9.32;3.03;;;;;;;-144.85;100.00;61331.59;5085531;28;31619;-79
2023/04/25 06:20:38;;;;;;;9.15;3.47;;;;;;;-144.85;100.00;61331.59;5081709;28;32836;-78
2023/04/25 06:23:05;;;;;;;12.93;3.38;;;;;;;-144.85;100.00;61331.59;5096836;27;33490;-79
2023/04/25 06:25:44;;;;;;;10.00;3.17;;;;;;;-144.85;100.00;61331.59;5082818;28;32644;-79
2023/04/25 06:28:12;;;;;;;14.52;3.60;;;;;;;-144.85;100.00;61331.59;5063206;28;30902;-79
2023/04/25 06:30:40;;;;;;;8.23;2.85;;;;;;;-144.85;100.00;61331.59;5078558;28;33459;-79
2023/04/25 06:33:11;;;;;;;9.07;3.20;;;;;;;-144.85;100.00;61331.59;5074898;28;33351;-79
2023/04/25 06:35:40;;;;;;;11.65;3.30;;;;;;;-144.85;100.00;61331.59;5064100;28;31081;-79
2023/04/25 06:38:10;;;;;;;7.28;2.97;;;;;;;-144.85;100.00;61331.59;5056752;28;30704;-79
2023/04/25 06:40:39;;;;;;;10.48;2.90;;;;;;;-144.85;100.00;61331.59;5077044;28;31383;-79
2023/04/25 06:43:10;;;;;;;8.80;2.75;;;;;;;-144.85;100.00;61331.59;5092849;22;31324;-67
2023/04/25 06:46:05;;;;;;;8.70;2.65;;;;;;;-144.85;100.00;61331.59;5055345;28;30750;-67
2023/04/25 06:48:39;;;;;;;7.72;2.17;;;;;;;-144.85;100.00;61331.59;5075955;28;30044;-67
2023/04/25 06:51:06;;;;;;;7.35;2.03;;;;;;;-144.85;100.00;61331.59;5076202;28;31366;-67
2023/04/25 06:53:36;;;;;;;11.50;2.45;;;;;;;-144.85;100.00;61331.59;5077881;28;32174;-67
2023/04/25 06:56:06;;;;;;;8.18;2.33;;;;;;;-144.85;100.00;61331.59;5059466;28;30780;-67
2023/04/25 06:58:53;;;;;;;8.02;2.40;;;;;;;-144.85;100.00;61331.59;5062247;28;30337;-67
2023/04/25 07:01:32;;;;;;;7.20;2.15;;;;;;;-144.85;100.00;61331.59;5055958;28;31290;-68
2023/04/25 07:04:03;;;;;;;5.50;1.83;;;;;;;-144.85;100.00;61331.59;5052495;28;32076;-67
2023/04/25 07:06:33;;;;;;;6.10;2.00;;;;;;;-144.85;100.00;61331.59;5072982;28;30798;-67
2023/04/25 07:09:00;;;;;;;4.80;1.90;;;;;;;-144.85;100.00;61331.59;5060532;28;30258;-68
2023/04/25 07:11:28;;;;;;;9.13;2.22;;;;;;;-144.85;100.00;61331.59;5068907;28;31319;-68
2023/04/25 07:13:56;;;;;;;8.60;2.03;;;;;;;-144.85;100.00;61331.59;5070860;28;31107;-68
2023/04/25 07:16:23;;;;;;;10.80;1.95;;;;;;;-144.85;100.00;61331.59;5071244;28;33408;-67
2023/04/25 07:18:51;;;;;;;6.60;1.83;;;;;;;-144.85;100.00;61331.59;5072410;28;30364;-67
2023/04/25 07:21:18;;;;;;;8.45;1.88;;;;;;;-144.85;100.00;61331.59;5053204;28;32457;-67
2023/04/25 07:23:47;;;;;;;8.07;2.03;;;;;;;-144.85;100.00;61331.59;5057434;28;31140;-68
2023/04/25 07:26:19;;;;;;;8.00;1.77;;;;;;;-144.85;100.00;61331.59;5070245;28;30760;-67
2023/04/25 07:29:06;;;;;;;6.55;2.00;;;;;;;-144.85;100.00;61331.59;5071695;28;32374;-67
2023/04/25 07:31:33;;;;;;;6.68;1.73;;;;;;;-144.85;100.00;61331.59;5069826;28;33416;-67
2023/04/25 07:34:01;;;;;;;10.75;2.03;;;;;;;-144.85;100.00;61331.59;5059675;28;31140;-67
2023/04/25 07:36:28;;;;;;;7.18;1.60;;;;;;;-144.85;100.00;61331.59;5078440;28;32072;-67
2023/04/25 07:38:55;;;;;;;6.22;1.60;;;;;;;-144.85;100.00;61331.59;5067018;28;31513;-67
2023/04/25 07:41:23;;;;;;;6.35;1.83;;;;;;;-144.85;100.00;61331.59;5054684;28;31330;-67
2023/04/25 07:43:50;;;;;;;9.55;1.95;;;;;;;-144.85;100.00;61331.59;5071500;28;31060;-67
2023/04/25 07:46:19;;;;;;;10.20;2.00;;;;;;;-144.85;100.00;61331.59;5057804;28;30727;-67
2023/04/25 07:48:46;;;;;;;5.53;2.10;;;;;;;-144.85;100.00;61331.59;5062041;28;30240;-67
2023/04/25 07:51:14;;;;;;;6.40;1.75;;;;;;;-144.85;100.00;61331.59;5061103;28;32519;-66
2023/04/25 07:53:41;;;;;;;10.63;1.98;;;;;;;-144.85;100.00;61331.59;5079298;28;32065;-67
2023/04/25 07:56:12;;;;;;;10.02;2.15;;;;;;;-144.85;100.00;61331.59;5068931;28;30799;-67
2023/04/25 07:58:42;;;;;;;8.98;2.00;;;;;;;-144.85;100.00;61331.59;5062538;28;31808;-68
2023/04/25 08:01:13;;;;;;;7.97;1.75;;;;;;;-144.85;100.00;61331.59;5062488;28;31421;-67
2023/04/25 08:03:53;;;;;;;8.43;1.73;;;;;;;-144.85;100.00;61331.59;5076169;28;32169;-67
2023/04/25 08:06:27;;;;;;;11.07;2.13;;;;;;;-144.85;100.00;61331.59;5056811;28;30677;-67
2023/04/25 08:09:04;;;;;;;9.35;1.67;;;;;;;-144.85;100.00;61331.59;5058324;28;33735;-67
2023/04/25 08:11:38;;;;;;;9.68;1.92;;;;;;;-144.85;100.00;61331.59;5061695;28;34769;-67
2023/04/25 08:14:07;;;;;;;8.82;1.90;;;;;;;-144.85;100.00;61331.59;5063116;28;30972;-67
2023/04/25 08:16:35;;;;;;;5.45;1.58;;;;;;;-144.85;100.00;61331.59;5065172;28;31529;-67
2023/04/25 08:19:03;;;;;;;6.93;1.70;;;;;;;-144.85;100.00;61331.59;5055720;28;30424;-67
2023/04/25 08:21:31;;;;;;;9.35;2.10;;;;;;;-144.85;100.00;61331.59;5065688;28;31820;-67
2023/04/25 08:24:01;;;;;;;8.00;1.63;;;;;;;-144.85;100.00;61331.59;5071574;28;31450;-67
2023/04/25 08:26:32;;;;;;;9.95;1.60;;;;;;;-144.85;100.00;61331.59;5060982;28;30723;-67
2023/04/25 08:29:00;;;;;;;7.25;1.60;;;;;;;-144.85;100.00;61331.59;5051776;28;31551;-67
2023/04/25 08:31:27;;;;;;;7.75;1.60;;;;;;;-144.85;100.00;61331.59;5061333;28;31353;-66
2023/04/25 08:33:58;;;;;;;8.63;1.80;;;;;;;-144.85;100.00;61331.59;5080283;28;33004;-67
2023/04/25 08:36:36;;;;;;;10.15;1.48;;;;;;;-144.85;100.00;61331.59;5076366;28;30766;-67
2023/04/25 08:39:24;;;;;;;9.68;1.60;;;;;;;-144.85;100.00;61331.59;5079318;28;33040;-67
2023/04/25 08:42:21;;;;;;;6.20;1.52;;;;;;;-144.85;100.00;61331.59;5075632;28;33220;-67
2023/04/25 08:44:50;;;;;;;8.38;1.80;;;;;;;-144.85;100.00;61331.59;5062481;28;31056;-67
2023/04/25 08:47:22;;;;;;;6.00;1.20;;;;;;;-144.85;100.00;61331.59;5074984;28;30685;-67
2023/04/25 08:49:55;;;;;;;7.65;1.30;;;;;;;-144.85;100.00;61331.59;5074907;28;29783;-67
2023/04/25 08:52:24;;;;;;;7.60;1.50;;;;;;;-144.85;100.00;61331.59;5060213;28;31271;-67
2023/04/25 08:54:54;;;;;;;5.63;1.30;;;;;;;-144.85;100.00;61331.59;5062752;28;32115;-67
2023/04/25 08:57:22;;;;;;;9.00;1.75;;;;;;;-144.85;100.00;61331.59;5067514;28;30653;-67
2023/04/25 08:59:51;;;;;;;7.05;1.65;;;;;;;-144.85;100.00;61331.59;5062064;28;31344;-67
2023/04/25 09:02:20;;;;;;;5.32;1.42;;;;;;;-144.85;100.00;61331.59;5061824;28;32331;-67
2023/04/25 09:04:50;;;;;;;8.60;1.50;;;;;;;-144.85;100.00;61331.59;5045924;28;30951;-66
2023/04/25 09:07:21;;;;;;;9.70;1.70;;;;;;;-144.85;100.00;61331.59;5077258;28;32692;-66
2023/04/25 09:09:48;;;;;;;7.40;1.55;;;;;;;-144.85;100.00;61331.59;5074156;28;31302;-67
2023/04/25 09:12:19;;;;;;;8.23;1.70;;;;;;;-144.85;100.00;61331.59;5065746;28;31750;-67
2023/04/25 09:15:05;;;;;;;5.95;1.38;;;;;;;-144.85;100.00;61331.59;5071083;28;31148;-67
2023/04/25 09:17:55;;;;;;;7.93;1.50;;;;;;;-144.85;100.00;61331.59;5073862;28;32393;-67
2023/04/25 09:20:24;;;;;;;7.82;1.50;;;;;;;-144.85;100.00;61331.59;5063719;28;30498;-67
2023/04/25 09:23:06;;;;;;;7.03;1.73;;;;;;;-144.85;100.00;61331.59;5071418;28;31369;-67
2023/04/25 09:25:38;;;;;;;3.45;1.20;;;;;;;-144.85;100.00;61331.59;5062122;28;31371;-67
2023/04/25 09:28:08;;;;;;;7.65;1.65;;;;;;;-144.85;100.00;61331.59;5058025;28;30654;-67
2023/04/25 09:30:36;;;;;;;6.85;1.42;;;;;;;-144.85;100.00;61331.59;5069491;28;30362;-66
2023/04/25 09:33:18;;;;;;;7.97;1.60;;;;;;;-144.85;100.00;61331.59;5034901;28;31397;-67
2023/04/25 09:35:55;;;;;;;5.10;1.30;;;;;;;-144.85;100.00;61331.59;5060620;28;31091;-67
2023/04/25 09:38:31;;;;;;;6.15;1.40;;;;;;;-144.85;100.00;61331.59;5061333;28;34507;-67
2023/04/25 09:41:10;;;;;;;10.05;1.38;;;;;;;-144.85;100.00;61331.59;5060654;28;34651;-67
2023/04/25 09:43:46;;;;;;;6.68;1.40;;;;;;;-144.85;100.00;61331.59;5074222;28;32285;-67
2023/04/25 09:46:14;;;;;;;5.10;1.30;;;;;;;-144.85;100.00;61331.59;5047545;28;31111;-67
2023/04/25 09:48:50;;;;;;;4.75;1.20;;;;;;;-144.85;100.00;61331.59;5061363;28;30620;-67
2023/04/25 09:51:26;;;;;;;5.40;1.40;;;;;;;-144.85;100.00;61331.59;5060252;28;30494;-67
2023/04/25 09:53:55;;;;;;;8.13;1.55;;;;;;;-144.85;100.00;61331.59;5072959;28;31334;-67
2023/04/25 09:56:39;;;;;;;6.00;1.45;;;;;;;-144.85;100.00;61331.59;5040977;28;31356;-67
2023/04/25 09:59:09;;;;;;;7.70;1.80;;;;;;;-144.85;100.00;61331.59;5070281;28;30655;-67
2023/04/25 10:01:40;;;;;;;6.47;1.58;;;;;;;-144.85;100.00;61331.59;5058601;28;31366;-66
2023/04/25 10:04:13;;;;;;;8.63;2.10;;;;;;;-144.85;100.00;61331.59;5058880;28;34215;-67
2023/04/25 10:06:50;;;;;;;10.13;1.95;;;;;;;-144.85;100.00;61331.59;5079090;28;34548;-67
2023/04/25 10:09:21;;;;;;;7.68;1.85;;;;;;;-144.85;100.00;61331.59;5076581;28;31918;-67
2023/04/25 10:11:48;;;;;;;6.57;1.50;;;;;;;-144.85;100.00;61331.59;5075561;28;32246;-67
2023/04/25 10:14:16;;;;;;;9.70;1.80;;;;;;;-144.85;100.00;61331.59;5092002;28;32519;-67
2023/04/25 10:16:43;;;;;;;9.20;1.73;;;;;;;-144.85;100.00;61331.59;5065409;28;33588;-66
2023/04/25 10:19:11;;;;;;;6.35;1.85;;;;;;;-144.85;100.00;61331.59;5068391;28;30505;-67
2023/04/25 10:21:51;;;;;;;8.65;1.77;;;;;;;-144.85;100.00;61331.59;5068440;28;31604;-67
2023/04/25 10:24:20;;;;;;;6.47;1.63;;;;;;;-144.85;100.00;61331.59;5074538;28;32458;-67
2023/04/25 10:26:48;;;;;;;7.15;1.58;;;;;;;-144.85;100.00;61331.59;5067281;28;31065;-66
2023/04/25 10:29:23;;;;;;;5.47;1.88;;;;;;;-144.85;100.00;61331.59;5077621;28;33347;-67
2023/04/25 10:31:51;;;;;;;4.22;1.58;;;;;;;-144.85;100.00;61331.59;5066911;28;32362;-67
2023/04/25 10:34:19;;;;;;;6.47;2.00;;;;;;;-144.85;100.00;61331.59;5073177;28;32318;-67
2023/04/25 10:36:53;;;;;;;6.57;1.42;;;;;;;-144.85;100.00;61331.59;5066002;28;32072;-67
2023/04/25 10:39:27;;;;;;;6.85;1.80;;;;;;;-144.85;100.00;61331.59;5064612;28;32432;-67
2023/04/25 10:41:58;;;;;;;6.45;1.63;;;;;;;-144.85;100.00;61331.59;5069733;28;31468;-66
2023/04/25 10:44:29;;;;;;;4.90;1.10;;;;;;;-144.85;100.00;61331.59;5068805;28;32409;-67
2023/04/25 10:46:58;;;;;;;3.40;1.20;;;;;;;-144.85;100.00;61331.59;5054854;28;32302;-67
2023/04/25 10:49:37;;;;;;;5.03;1.38;;;;;;;-144.85;100.00;61331.59;5073109;28;32646;-67
2023/04/25 10:52:32;;;;;;;4.75;1.20;;;;;;;-144.85;100.00;61331.59;5062337;28;32378;-67
2023/04/25 10:55:03;;;;;;;4.38;1.20;;;;;;;-144.85;100.00;61331.59;5075997;28;32174;-67
2023/04/25 10:57:42;;;;;;;5.88;1.23;;;;;;;-144.85;100.00;61331.59;5056525;28;32744;-67
2023/04/25 11:00:12;;;;;;;4.70;1.17;;;;;;;-144.85;100.00;61331.59;5060632;28;30539;-66
2023/04/25 11:02:51;;;;;;;4.45;1.02;;;;;;;-144.85;100.00;61331.59;5068723;28;31875;-67
2023/04/25 11:05:22;;;;;;;4.05;1.30;;;;;;;-144.85;100.00;61331.59;5068036;28;32529;-66
2023/04/25 11:07:52;;;;;;;5.43;1.33;;;;;;;-144.85;100.00;61331.59;5066592;28;33338;-66
2023/04/25 11:10:35;;;;;;;5.25;1.40;;;;;;;-144.85;100.00;61331.59;5058305;28;31625;-65
2023/04/25 11:13:03;;;;;;;6.53;1.50;;;;;;;-144.85;100.00;61331.59;5061332;28;31663;-66
2023/04/25 11:15:30;;;;;;;5.07;1.23;;;;;;;-144.85;100.00;61331.59;5068212;28;30352;-66
2023/04/25 11:17:57;;;;;;;3.92;1.33;;;;;;;-144.85;100.00;61331.59;5075336;28;33311;-66
2023/04/25 11:20:26;;;;;;;4.40;1.40;;;;;;;-144.85;100.00;61331.59;5061770;28;32007;-66
2023/04/25 11:22:53;;;;;;;3.83;1.27;;;;;;;-144.85;100.00;61331.59;5067918;28;32262;-66
2023/04/25 11:25:23;;;;;;;5.07;1.30;;;;;;;-144.85;100.00;61331.59;5054953;28;32518;-66